Time;durP1;ratioP1;P1;durP2;ratioP2;P2;SDS_P1;SDS_P2;PMS_P1;PMS_P2;Temp;Humidity;BMP_temperature;BMP_pressure;BME280_temperature;BME280_humidity;BME280_pressure;Samples;Min_cycle;Max_cycle;Signal;HPM_P1;HPM_P2
2021/12/03 05:00:14;;;;;;;9.25;8.35;;;2.50;99.90;;;;;;6051253;23;20378;31
2021/12/03 05:02:41;;;;;;;8.10;7.40;;;2.60;99.90;;;;;;4944724;29;20494;-66
2021/12/03 05:05:08;;;;;;;7.67;6.93;;;2.60;99.90;;;;;;4945563;29;20465;-67
2021/12/03 05:07:54;;;;;;;8.90;8.00;;;2.60;99.90;;;;;;4942340;29;20459;-67
2021/12/03 05:10:20;;;;;;;8.67;7.50;;;2.60;99.90;;;;;;4941314;29;20459;-66
2021/12/03 05:12:47;;;;;;;10.03;7.27;;;2.60;99.90;;;;;;4940810;29;20453;-67
2021/12/03 05:15:15;;;;;;;8.50;7.70;;;2.70;99.90;;;;;;4940489;29;20457;-67
2021/12/03 05:17:42;;;;;;;9.67;7.70;;;2.70;99.90;;;;;;4940014;29;20461;-67
2021/12/03 05:20:09;;;;;;;8.83;7.50;;;2.70;99.90;;;;;;4939940;29;20823;-67
2021/12/03 05:22:36;;;;;;;10.00;7.70;;;2.70;99.90;;;;;;4940048;29;20475;-67
2021/12/03 05:25:04;;;;;;;8.20;7.50;;;2.70;99.90;;;;;;4939934;29;20491;-67
2021/12/03 05:27:31;;;;;;;8.23;7.43;;;2.70;99.90;;;;;;4939796;29;20896;-67
2021/12/03 05:29:57;;;;;;;8.77;7.37;;;2.70;99.90;;;;;;4940291;29;20468;-67
2021/12/03 05:32:25;;;;;;;7.93;7.23;;;2.70;99.90;;;;;;4940215;29;20475;-66
2021/12/03 05:34:52;;;;;;;10.17;8.63;;;2.70;99.90;;;;;;4939636;29;20460;-68
2021/12/03 05:37:19;;;;;;;8.80;7.90;;;2.60;99.90;;;;;;4939700;29;20806;-67
2021/12/03 05:39:46;;;;;;;8.20;7.37;;;2.70;99.90;;;;;;4940253;29;20480;-67
2021/12/03 05:42:13;;;;;;;7.50;6.80;;;2.70;99.90;;;;;;4939678;29;20488;-67
2021/12/03 05:44:40;;;;;;;8.53;7.77;;;2.70;99.90;;;;;;4939501;29;20477;-67
2021/12/03 05:47:08;;;;;;;8.00;7.20;;;2.60;99.90;;;;;;4940827;29;20460;-67
2021/12/03 05:49:36;;;;;;;8.70;7.90;;;2.60;99.90;;;;;;4940337;29;20460;-68
2021/12/03 05:52:03;;;;;;;13.10;7.90;;;2.70;99.90;;;;;;4940176;29;20228;-68
2021/12/03 05:54:30;;;;;;;8.43;7.70;;;2.90;99.90;;;;;;4941769;29;20457;-68
2021/12/03 05:56:56;;;;;;;13.33;8.60;;;3.10;99.90;;;;;;4940580;29;20494;-68
2021/12/03 05:59:23;;;;;;;8.43;7.60;;;3.20;99.90;;;;;;4939570;29;20460;-67
2021/12/03 06:01:50;;;;;;;9.77;6.83;;;3.30;99.90;;;;;;4939741;29;20493;-68
2021/12/03 06:04:17;;;;;;;6.90;6.20;;;3.50;99.90;;;;;;4939694;29;20485;-68
2021/12/03 06:06:45;;;;;;;8.13;7.33;;;3.60;99.90;;;;;;4939170;29;20467;-68
2021/12/03 06:09:12;;;;;;;7.17;6.57;;;3.50;99.90;;;;;;4938921;29;20453;-67
2021/12/03 06:11:39;;;;;;;6.77;5.93;;;3.60;99.90;;;;;;4939276;29;20484;-68
2021/12/03 06:14:06;;;;;;;6.93;6.27;;;3.60;99.90;;;;;;4938121;29;20457;-67
2021/12/03 06:16:33;;;;;;;7.63;6.73;;;3.80;99.90;;;;;;4938771;29;20483;-68
2021/12/03 06:18:59;;;;;;;6.80;6.20;;;3.80;99.90;;;;;;4940190;29;20461;-68
2021/12/03 06:21:26;;;;;;;9.20;6.77;;;3.80;99.90;;;;;;4938567;29;21010;-67
2021/12/03 06:23:54;;;;;;;7.20;6.50;;;3.80;99.90;;;;;;4938804;29;20488;-67
2021/12/03 06:26:21;;;;;;;7.90;7.17;;;3.70;99.90;;;;;;4938723;29;20460;-66
2021/12/03 06:28:47;;;;;;;6.73;6.13;;;3.60;99.90;;;;;;4938866;29;20468;-67
2021/12/03 06:31:14;;;;;;;8.73;7.10;;;3.60;99.90;;;;;;4938621;29;20473;-67
2021/12/03 06:33:41;;;;;;;7.87;7.17;;;3.40;99.90;;;;;;4938730;29;20453;-67
2021/12/03 06:36:08;;;;;;;11.90;7.10;;;3.30;99.90;;;;;;4938340;29;20944;-67
2021/12/03 06:38:38;;;;;;;7.37;6.77;;;3.10;99.90;;;;;;4939115;29;20473;-66
2021/12/03 06:41:07;;;;;;;7.50;6.90;;;2.90;99.90;;;;;;4938486;29;20476;-66
2021/12/03 06:43:34;;;;;;;8.47;7.73;;;3.00;99.90;;;;;;4938431;29;20838;-66
2021/12/03 06:46:01;;;;;;;8.07;7.10;;;3.00;99.90;;;;;;4938216;29;20469;-66
2021/12/03 06:48:28;;;;;;;7.97;7.27;;;3.00;99.90;;;;;;4938346;29;20457;-66
2021/12/03 06:50:54;;;;;;;7.70;6.97;;;3.00;99.90;;;;;;4938707;29;20837;-67
2021/12/03 06:53:24;;;;;;;8.43;7.73;;;3.00;99.90;;;;;;4938265;29;20589;-66
2021/12/03 06:55:53;;;;;;;6.90;6.30;;;2.90;99.90;;;;;;4938277;29;20460;-67
2021/12/03 06:58:22;;;;;;;7.03;6.33;;;2.70;99.90;;;;;;4938151;29;20461;-67
2021/12/03 07:00:56;;;;;;;6.13;5.53;;;2.60;99.90;;;;;;4937747;29;20991;-67
2021/12/03 07:03:23;;;;;;;8.67;6.90;;;2.50;99.90;;;;;;4938311;29;20456;-67
2021/12/03 07:05:49;;;;;;;7.23;6.53;;;2.40;99.90;;;;;;4938523;29;20464;-67
2021/12/03 07:08:16;;;;;;;7.77;7.07;;;2.40;99.90;;;;;;4938072;29;20460;-66
2021/12/03 07:10:43;;;;;;;7.30;6.40;;;2.30;99.90;;;;;;4938000;29;20480;-66
2021/12/03 07:13:10;;;;;;;6.53;5.93;;;2.30;99.90;;;;;;4937588;29;20457;-66
2021/12/03 07:15:38;;;;;;;6.33;5.83;;;2.20;99.90;;;;;;4937806;29;20457;-67
2021/12/03 07:18:05;;;;;;;6.43;5.63;;;2.20;99.90;;;;;;4937769;29;20512;-66
2021/12/03 07:20:32;;;;;;;6.23;5.63;;;2.20;99.90;;;;;;4937958;29;20477;-67
2021/12/03 07:22:59;;;;;;;6.57;5.90;;;2.20;99.90;;;;;;4937938;29;20453;-67
2021/12/03 07:25:26;;;;;;;4.90;4.47;;;2.10;99.90;;;;;;4937661;29;20484;-67
2021/12/03 07:27:53;;;;;;;5.20;4.60;;;2.00;99.90;;;;;;4938670;29;20812;-67
2021/12/03 07:30:21;;;;;;;6.27;4.27;;;2.00;99.90;;;;;;4937762;29;20460;-66
2021/12/03 07:32:49;;;;;;;4.03;3.37;;;2.10;99.90;;;;;;4937601;29;20544;-67
2021/12/03 07:35:16;;;;;;;3.43;2.40;;;2.10;99.90;;;;;;4937414;29;20452;-67
2021/12/03 07:37:43;;;;;;;2.70;2.50;;;2.10;99.90;;;;;;4944705;29;20530;-67
2021/12/03 07:40:12;;;;;;;3.23;3.03;;;2.10;99.90;;;;;;4955650;29;20441;-67
2021/12/03 07:42:39;;;;;;;3.37;2.77;;;2.60;99.90;;;;;;4940386;29;20527;-67
2021/12/03 07:45:08;;;;;;;3.97;3.60;;;3.60;99.90;;;;;;4938246;29;20476;-68
2021/12/03 07:47:35;;;;;;;4.60;3.50;;;4.70;99.90;;;;;;4936955;29;20944;-66
2021/12/03 07:50:04;;;;;;;5.13;3.63;;;5.40;99.90;;;;;;4937127;29;20461;-66
2021/12/03 07:52:33;;;;;;;3.27;2.77;;;6.00;99.90;;;;;;4937115;29;20477;-66
2021/12/03 07:55:00;;;;;;;3.80;2.70;;;6.60;99.90;;;;;;4937398;29;20452;-66
2021/12/03 07:57:26;;;;;;;3.50;3.20;;;6.60;99.90;;;;;;4937383;29;20441;-68
2021/12/03 07:59:53;;;;;;;3.53;3.23;;;6.30;99.90;;;;;;4938147;29;20460;-67
2021/12/03 08:02:20;;;;;;;4.37;3.40;;;6.90;99.90;;;;;;4937985;29;20496;-67
2021/12/03 08:04:46;;;;;;;6.23;4.50;;;8.10;99.90;;;;;;4946131;29;20492;-67
2021/12/03 08:07:15;;;;;;;4.80;2.87;;;8.60;99.90;;;;;;4945487;29;20472;-68
2021/12/03 08:09:41;;;;;;;5.47;3.70;;;9.10;99.90;;;;;;4937651;29;20468;-65
2021/12/03 08:12:09;;;;;;;2.90;2.80;;;9.80;99.90;;;;;;4936718;29;20481;-66
2021/12/03 08:14:35;;;;;;;6.10;3.90;;;10.00;99.90;;;;;;4936691;29;20453;-66
2021/12/03 08:17:02;;;;;;;3.33;3.00;;;9.70;99.90;;;;;;4936936;29;20461;-66
2021/12/03 08:19:29;;;;;;;3.63;3.40;;;9.60;99.90;;;;;;4936988;29;20460;-66
2021/12/03 08:21:56;;;;;;;5.13;4.37;;;8.80;99.90;;;;;;4940522;29;20480;-66
2021/12/03 08:24:24;;;;;;;4.20;3.43;;;8.70;99.90;;;;;;4948351;29;20489;-67
2021/12/03 08:26:51;;;;;;;3.87;3.60;;;8.30;99.90;;;;;;4937237;29;20963;-67
2021/12/03 08:29:17;;;;;;;4.03;3.73;;;8.20;99.90;;;;;;4936908;29;20465;-67
2021/12/03 08:31:44;;;;;;;5.40;3.50;;;8.40;99.90;;;;;;4936927;29;20481;-67
2021/12/03 08:34:11;;;;;;;3.67;3.37;;;8.30;99.90;;;;;;4936437;29;20452;-66
2021/12/03 08:36:38;;;;;;;3.70;3.47;;;9.00;99.90;;;;;;4937232;29;20974;-67
2021/12/03 08:39:05;;;;;;;3.10;2.90;;;9.80;99.60;;;;;;4941136;29;20862;-67
2021/12/03 08:41:35;;;;;;;3.80;3.60;;;11.30;95.70;;;;;;4941113;29;20484;-67
2021/12/03 08:44:03;;;;;;;4.83;4.27;;;11.00;92.60;;;;;;4941113;29;20496;-67
2021/12/03 08:46:32;;;;;;;6.20;3.83;;;11.00;93.10;;;;;;4940686;29;20468;-66
2021/12/03 08:49:07;;;;;;;4.20;3.80;;;11.40;90.80;;;;;;4940610;29;20503;-67
2021/12/03 08:51:47;;;;;;;5.03;3.57;;;12.10;91.20;;;;;;4940533;29;20482;-67
2021/12/03 08:56:59;;;;;;;5.87;3.50;;;13.60;81.40;;;;;;4940525;29;20418;-68
2021/12/03 08:59:26;;;;;;;3.90;3.50;;;14.70;78.00;;;;;;4940766;29;20458;-67
2021/12/03 09:01:53;;;;;;;3.77;3.50;;;14.90;72.80;;;;;;4945973;29;20515;-67
2021/12/03 09:04:19;;;;;;;3.97;3.60;;;14.30;72.40;;;;;;4942486;29;20483;-67
2021/12/03 09:06:46;;;;;;;3.70;3.40;;;13.20;73.70;;;;;;4940614;29;20458;-67
2021/12/03 09:09:13;;;;;;;5.37;3.60;;;12.10;77.20;;;;;;4940955;29;20468;-67
2021/12/03 09:11:40;;;;;;;4.40;4.00;;;11.00;81.10;;;;;;4941530;29;20837;-67
2021/12/03 09:14:17;;;;;;;4.13;3.83;;;10.30;83.40;;;;;;4940996;29;20551;-66
2021/12/03 09:16:45;;;;;;;3.80;3.50;;;9.60;86.30;;;;;;4941032;29;20916;-67
2021/12/03 09:19:18;;;;;;;3.17;2.97;;;9.00;89.10;;;;;;4941254;29;20483;-65
2021/12/03 09:21:46;;;;;;;3.33;3.03;;;8.50;90.00;;;;;;4940707;29;20499;-66
2021/12/03 09:24:16;;;;;;;3.33;3.13;;;8.00;90.20;;;;;;4941608;29;20457;-67
2021/12/03 09:26:43;;;;;;;3.40;3.20;;;7.60;91.60;;;;;;4940310;29;20467;-67
2021/12/03 09:29:16;;;;;;;6.87;3.83;;;7.30;92.80;;;;;;4941021;29;20460;-67
2021/12/03 09:31:44;;;;;;;5.07;3.60;;;6.90;94.30;;;;;;4942913;29;20476;-66
2021/12/03 09:34:15;;;;;;;3.73;3.10;;;6.70;96.30;;;;;;4940342;29;20461;-67
2021/12/03 09:36:43;;;;;;;3.20;2.90;;;6.50;96.10;;;;;;4939799;29;20944;-67
2021/12/03 09:39:15;;;;;;;4.00;2.27;;;6.40;96.30;;;;;;4939708;29;20471;-66
2021/12/03 09:41:42;;;;;;;3.10;2.30;;;6.10;96.90;;;;;;4940511;29;20525;-67
2021/12/03 09:44:08;;;;;;;2.20;2.10;;;6.10;98.70;;;;;;4940331;29;20457;-67
2021/12/03 09:46:36;;;;;;;3.47;2.10;;;6.20;99.80;;;;;;4939956;29;20460;-66
2021/12/03 09:51:55;;;;;;;3.07;1.83;;;6.10;99.30;;;;;;4940612;29;20597;-66
2021/12/03 09:54:33;;;;;;;7.33;2.23;;;6.10;97.60;;;;;;4940586;29;20446;-66
2021/12/03 09:57:03;;;;;;;4.70;2.80;;;5.80;98.10;;;;;;4940154;29;20441;-67
2021/12/03 10:13:37;;;;;;;2.00;1.90;;;5.30;99.90;;;;;;4952554;29;20426;-66
2021/12/03 10:16:14;;;;;;;4.33;1.90;;;5.20;99.90;;;;;;4941305;29;20449;-67
2021/12/03 10:18:45;;;;;;;3.27;1.93;;;5.20;99.90;;;;;;4939855;29;20444;-66
2021/12/03 10:21:37;;;;;;;3.70;2.03;;;5.30;99.90;;;;;;4938876;29;20484;-67
2021/12/03 10:24:45;;;;;;;2.40;1.83;;;5.70;99.90;;;;;;4939662;29;20459;-67
2021/12/03 10:30:28;;;;;;;2.73;2.53;;;6.80;99.90;;;;;;4939238;29;20476;-66
2021/12/03 10:33:13;;;;;;;2.57;2.33;;;6.90;98.60;;;;;;4947713;29;20528;-68
2021/12/03 10:36:13;;;;;;;4.50;2.57;;;7.70;98.50;;;;;;4952663;29;20433;-66
2021/12/03 10:41:31;;;;;;;4.93;3.03;;;7.80;96.10;;;;;;4936535;29;20512;-66
2021/12/03 10:44:10;;;;;;;2.50;2.30;;;7.90;96.40;;;;;;4939367;29;20441;-67
2021/12/03 10:46:48;;;;;;;2.70;2.60;;;7.90;96.00;;;;;;4938911;29;20477;-67
2021/12/03 10:57:48;;;;;;;5.77;3.00;;;6.20;99.90;;;;;;4937930;29;20441;-67
2021/12/03 11:03:54;;;;;;;4.30;2.97;;;5.70;99.90;;;;;;4938408;29;20419;-67
2021/12/03 11:29:18;;;;;;;5.90;2.63;;;5.00;99.90;;;;;;4938041;29;20550;-67
2021/12/03 11:33:41;;;;;;;6.03;3.20;;;4.90;99.90;;;;;;4937969;29;20994;-67
2021/12/03 11:35:16;;;;;;;2.67;2.57;;;5.20;99.90;;;;;;4937723;29;20457;-66
2021/12/03 12:17:09;;;;;;;3.30;3.00;;;5.10;99.90;;;;;;4938328;29;20417;-67
2021/12/03 12:20:14;;;;;;;5.67;3.30;;;5.10;99.90;;;;;;4937125;29;20532;-67
2021/12/03 12:35:19;;;;;;;3.60;2.70;;;5.20;99.90;;;;;;4913293;29;20444;-66
2021/12/03 13:17:26;;;;;;;2.80;2.60;;;4.40;99.90;;;;;;4937174;29;20449;-67
2021/12/03 14:01:52;;;;;;;2.93;2.07;;;4.40;99.90;;;;;;4880786;29;20480;-67
2021/12/03 14:10:25;;;;;;;2.17;2.07;;;4.40;99.90;;;;;;4941414;29;20452;-67
2021/12/03 14:38:30;;;;;;;3.77;1.73;;;4.20;99.90;;;;;;4907898;29;20453;-67
2021/12/03 14:41:18;;;;;;;2.13;2.00;;;4.20;99.90;;;;;;4949157;29;20500;-67
2021/12/03 14:43:50;;;;;;;5.53;2.10;;;4.20;99.90;;;;;;4948537;29;20444;-68
2021/12/03 14:46:38;;;;;;;2.03;1.70;;;4.30;99.90;;;;;;4947550;29;20469;-67
2021/12/03 14:49:12;;;;;;;2.53;2.27;;;4.20;99.90;;;;;;4941500;29;20448;-67
2021/12/03 14:57:35;;;;;;;2.73;2.20;;;4.20;99.90;;;;;;4933085;29;20452;-66
2021/12/03 15:08:46;;;;;;;2.87;1.63;;;4.10;99.90;;;;;;4879447;29;20796;-66
2021/12/03 15:25:19;;;;;;;2.10;1.83;;;3.80;99.90;;;;;;4938686;29;20421;-67
2021/12/03 15:28:05;;;;;;;4.13;1.70;;;3.80;99.90;;;;;;4938036;29;20441;-67
2021/12/03 15:33:25;;;;;;;2.20;2.00;;;3.60;99.90;;;;;;4937678;29;20428;-67
2021/12/03 15:35:57;;;;;;;2.80;2.53;;;3.60;99.90;;;;;;4937346;29;20496;-67
2021/12/03 15:38:38;;;;;;;2.57;2.47;;;3.60;99.90;;;;;;4937658;29;20445;-67
2021/12/03 15:55:27;;;;;;;2.90;2.70;;;3.50;99.90;;;;;;4936809;29;20425;-68
2021/12/03 15:58:05;;;;;;;3.47;3.00;;;3.40;99.90;;;;;;4937732;29;20453;-67
2021/12/03 16:06:31;;;;;;;9.73;7.00;;;3.30;99.90;;;;;;4903001;29;20484;-67
2021/12/03 16:09:07;;;;;;;11.07;9.03;;;3.30;99.90;;;;;;4936821;29;20510;-67
2021/12/03 16:11:40;;;;;;;12.30;9.50;;;3.30;99.90;;;;;;4936509;29;20983;-68
2021/12/03 16:14:29;;;;;;;12.73;9.07;;;3.20;99.90;;;;;;4937858;29;20541;-66
2021/12/03 16:19:58;;;;;;;12.67;8.77;;;3.20;99.90;;;;;;4939388;29;20439;-67
2021/12/03 16:22:41;;;;;;;13.80;10.33;;;3.20;99.90;;;;;;4936785;29;20567;-68
2021/12/03 16:25:23;;;;;;;13.70;10.03;;;3.20;99.90;;;;;;4936890;29;20443;-68
2021/12/03 16:44:33;;;;;;;16.23;9.77;;;3.20;99.90;;;;;;4938485;29;20583;-66
2021/12/03 16:47:04;;;;;;;16.80;8.83;;;3.10;99.90;;;;;;4936821;29;20468;-67
2021/12/03 16:52:29;;;;;;;9.37;7.00;;;3.10;99.90;;;;;;4878115;29;20526;-66
2021/12/03 16:54:57;;;;;;;7.33;5.77;;;3.10;99.90;;;;;;4923643;29;20488;-67
2021/12/03 16:57:29;;;;;;;6.97;6.00;;;3.10;99.90;;;;;;4937523;29;20940;-66
2021/12/03 16:59:57;;;;;;;12.37;5.53;;;3.10;99.90;;;;;;4940175;29;20447;-66
2021/12/03 17:02:32;;;;;;;8.70;5.03;;;3.10;99.90;;;;;;4939771;29;20992;-66
2021/12/03 17:05:19;;;;;;;4.90;4.40;;;3.10;99.90;;;;;;4940780;29;20535;-67
2021/12/03 17:22:20;;;;;;;6.20;3.93;;;3.20;99.90;;;;;;4940187;29;20456;-66
2021/12/03 17:25:07;;;;;;;3.90;3.60;;;3.20;99.90;;;;;;4941658;29;20885;-66
2021/12/03 17:44:56;;;;;;;3.90;3.50;;;3.30;99.90;;;;;;4939252;29;20468;-66
2021/12/03 17:47:42;;;;;;;5.10;4.57;;;3.30;99.90;;;;;;4939461;29;20476;-66
2021/12/03 17:50:25;;;;;;;4.40;4.10;;;3.30;99.90;;;;;;4938950;29;20874;-66
2021/12/03 17:53:23;;;;;;;3.63;3.33;;;3.20;99.90;;;;;;4939354;29;20445;-67
2021/12/03 17:56:09;;;;;;;4.80;3.70;;;3.30;99.90;;;;;;4939225;29;20457;-66
2021/12/03 17:58:37;;;;;;;2.90;2.70;;;3.30;99.90;;;;;;4939321;29;20445;-66
2021/12/03 18:01:09;;;;;;;3.50;3.20;;;3.30;99.90;;;;;;4938713;29;20922;-67
2021/12/03 18:03:44;;;;;;;4.83;3.20;;;3.30;99.90;;;;;;4939182;29;20536;-66
2021/12/03 18:08:58;;;;;;;4.00;3.30;;;3.30;99.90;;;;;;4936134;29;20441;-67
2021/12/03 18:11:59;;;;;;;3.23;2.90;;;3.30;99.90;;;;;;4938965;29;20483;-67
2021/12/03 18:17:35;;;;;;;3.30;3.00;;;3.30;99.90;;;;;;4940658;29;20840;-66
2021/12/03 18:45:11;;;;;;;2.93;2.63;;;3.40;99.90;;;;;;4938695;29;20421;-66
2021/12/03 18:47:53;;;;;;;3.13;2.73;;;3.50;99.90;;;;;;4938306;29;20528;-66
2021/12/03 18:50:45;;;;;;;3.07;2.80;;;3.50;99.90;;;;;;4938377;29;20445;-66
2021/12/03 18:53:29;;;;;;;4.03;2.90;;;3.50;99.90;;;;;;4938299;29;20464;-65
2021/12/03 18:55:57;;;;;;;3.40;3.07;;;3.40;99.90;;;;;;4938104;29;20437;-66
2021/12/03 18:58:26;;;;;;;3.87;2.70;;;3.40;99.90;;;;;;4938678;29;20952;-66
2021/12/03 19:00:54;;;;;;;2.60;2.43;;;3.50;99.90;;;;;;4945105;29;20487;-65
2021/12/03 19:03:26;;;;;;;3.77;3.20;;;3.50;99.90;;;;;;4940336;29;20952;-68
2021/12/03 19:06:02;;;;;;;2.93;2.63;;;3.60;99.90;;;;;;4937727;29;20807;-67
2021/12/03 19:08:36;;;;;;;3.50;3.20;;;3.60;99.90;;;;;;4938681;29;20447;-68
2021/12/03 19:11:06;;;;;;;6.00;3.43;;;3.60;99.90;;;;;;4938042;29;20472;-68
2021/12/03 19:13:37;;;;;;;3.17;2.97;;;3.60;99.90;;;;;;4937939;29;20445;-68
2021/12/03 19:16:07;;;;;;;3.30;3.10;;;3.60;99.90;;;;;;4937484;29;20980;-68
2021/12/03 19:18:34;;;;;;;5.13;3.27;;;3.70;99.90;;;;;;4937990;29;20441;-68
2021/12/03 19:21:06;;;;;;;4.03;3.10;;;3.60;99.90;;;;;;4937774;29;20483;-68
2021/12/03 19:23:34;;;;;;;4.17;3.00;;;3.60;99.90;;;;;;4937971;29;20984;-69
2021/12/03 19:26:01;;;;;;;3.70;3.40;;;3.60;99.90;;;;;;4938098;29;20464;-67
2021/12/03 19:28:31;;;;;;;3.63;3.33;;;3.50;99.90;;;;;;4938032;29;20530;-68
2021/12/03 19:30:58;;;;;;;3.43;3.00;;;3.50;99.90;;;;;;4937577;29;20477;-68
2021/12/03 19:33:25;;;;;;;3.47;2.87;;;3.60;99.90;;;;;;4937609;29;20468;-68
2021/12/03 19:35:51;;;;;;;2.93;2.73;;;3.50;99.90;;;;;;4937346;29;20527;-67
2021/12/03 19:38:18;;;;;;;3.33;3.10;;;3.60;99.90;;;;;;4937430;29;20463;-67
2021/12/03 19:40:53;;;;;;;3.43;3.13;;;3.50;99.90;;;;;;4936969;29;20477;-68
2021/12/03 19:43:26;;;;;;;4.00;3.10;;;3.60;99.90;;;;;;4937158;29;20980;-68
2021/12/03 19:45:58;;;;;;;3.37;3.10;;;3.60;99.90;;;;;;4937400;29;20802;-67
2021/12/03 19:48:32;;;;;;;3.10;2.90;;;3.60;99.90;;;;;;4938889;29;20536;-67
2021/12/03 19:51:00;;;;;;;3.87;3.57;;;3.60;99.90;;;;;;4938419;29;20535;-67
2021/12/03 19:53:28;;;;;;;4.50;4.20;;;3.60;99.90;;;;;;4937392;29;20870;-68
2021/12/03 19:55:56;;;;;;;3.07;2.87;;;3.50;99.90;;;;;;4937701;29;20541;-67
2021/12/03 19:58:23;;;;;;;3.60;3.40;;;3.60;99.90;;;;;;4937619;29;20464;-68
2021/12/03 20:00:51;;;;;;;5.73;3.80;;;3.60;99.90;;;;;;4937286;29;20857;-68
2021/12/03 20:03:18;;;;;;;3.63;3.33;;;3.60;99.90;;;;;;4937543;29;20465;-68
2021/12/03 20:05:44;;;;;;;5.40;4.90;;;3.60;99.90;;;;;;4937963;29;20461;-68
2021/12/03 20:08:11;;;;;;;5.93;3.70;;;3.70;99.90;;;;;;4937811;29;20481;-68
2021/12/03 20:10:40;;;;;;;3.60;3.30;;;3.70;99.90;;;;;;4938906;29;20463;-68
2021/12/03 20:13:10;;;;;;;5.03;4.10;;;3.70;99.90;;;;;;4946673;29;20456;-68
2021/12/03 20:15:43;;;;;;;4.07;3.67;;;3.70;99.90;;;;;;4949150;29;20445;-68
2021/12/03 20:18:20;;;;;;;4.47;4.07;;;3.70;99.90;;;;;;4948607;29;20442;-68
2021/12/03 20:20:48;;;;;;;3.90;3.23;;;3.70;99.90;;;;;;4940433;29;20564;-67
2021/12/03 20:23:27;;;;;;;3.80;3.50;;;3.70;99.90;;;;;;4938212;29;20457;-67
2021/12/03 20:28:38;;;;;;;5.07;3.57;;;3.60;99.90;;;;;;4938673;29;20445;-67
2021/12/03 20:31:07;;;;;;;5.00;4.50;;;3.60;99.90;;;;;;4939649;29;20477;-67
2021/12/03 20:36:40;;;;;;;4.40;4.00;;;3.70;99.90;;;;;;4942100;29;20453;-67
2021/12/03 20:39:13;;;;;;;4.30;3.90;;;3.60;99.90;;;;;;4941779;29;20540;-67
2021/12/03 20:41:45;;;;;;;3.80;3.60;;;3.70;99.90;;;;;;4941962;29;20499;-66
2021/12/03 20:47:13;;;;;;;4.60;4.20;;;3.80;99.90;;;;;;4941615;29;20463;-67
2021/12/03 20:49:57;;;;;;;5.13;4.63;;;3.80;99.90;;;;;;4941525;29;20544;-67
2021/12/03 20:52:40;;;;;;;4.23;3.73;;;3.90;99.90;;;;;;4942152;29;20487;-67
2021/12/03 21:08:52;;;;;;;5.60;4.03;;;3.90;99.90;;;;;;4942236;29;20508;-68
2021/12/03 21:11:22;;;;;;;9.30;4.30;;;3.90;99.90;;;;;;4944315;29;20504;-67
2021/12/03 21:13:50;;;;;;;3.73;3.43;;;4.00;99.90;;;;;;4944127;29;20543;-69
2021/12/03 21:16:45;;;;;;;5.50;3.90;;;4.00;99.90;;;;;;4949858;29;20449;-68
2021/12/03 21:19:27;;;;;;;5.27;3.87;;;4.00;99.90;;;;;;4956432;29;20500;-67
2021/12/03 21:21:57;;;;;;;3.97;3.40;;;3.90;99.90;;;;;;4954857;29;20481;-68
2021/12/03 21:24:31;;;;;;;4.03;3.73;;;4.00;99.90;;;;;;4953107;29;20483;-68
2021/12/03 21:26:59;;;;;;;4.40;4.10;;;4.00;99.90;;;;;;4952959;29;20519;-67
2021/12/03 21:29:38;;;;;;;5.13;3.70;;;3.90;99.90;;;;;;4948689;29;20531;-69
2021/12/03 21:32:17;;;;;;;4.53;4.20;;;3.90;99.90;;;;;;4947966;29;20481;-68
2021/12/03 21:40:15;;;;;;;4.03;3.40;;;4.00;99.90;;;;;;4949058;29;20445;-68
2021/12/03 21:42:42;;;;;;;3.63;3.33;;;4.00;99.90;;;;;;4952368;29;20476;-68
2021/12/03 21:45:10;;;;;;;4.67;3.33;;;4.00;99.90;;;;;;4956350;29;20449;-68
2021/12/03 21:47:38;;;;;;;4.73;3.33;;;4.00;99.90;;;;;;4947863;29;20489;-67
2021/12/03 21:50:05;;;;;;;3.77;3.43;;;4.00;99.90;;;;;;4946322;29;20468;-67
2021/12/03 21:52:32;;;;;;;3.73;3.53;;;4.00;99.90;;;;;;4944544;29;20488;-68
2021/12/03 21:54:58;;;;;;;3.90;3.60;;;4.00;99.90;;;;;;4943521;29;20464;-67
2021/12/03 21:57:26;;;;;;;4.17;3.77;;;3.90;99.90;;;;;;4945401;29;20449;-67
2021/12/03 21:59:53;;;;;;;3.60;2.90;;;3.90;99.90;;;;;;4942550;29;20461;-67
2021/12/03 22:02:20;;;;;;;3.67;3.30;;;3.90;99.90;;;;;;4942131;29;20485;-67
2021/12/03 22:04:48;;;;;;;4.23;3.23;;;3.90;99.90;;;;;;4942367;29;20462;-67
2021/12/03 22:07:15;;;;;;;3.60;3.30;;;3.80;99.90;;;;;;4942385;29;20484;-68
2021/12/03 22:09:42;;;;;;;3.40;3.10;;;3.90;99.90;;;;;;4942579;29;20457;-67
2021/12/03 22:12:10;;;;;;;4.03;3.73;;;3.80;99.90;;;;;;4942607;29;20487;-67
2021/12/03 22:14:38;;;;;;;3.80;3.43;;;3.70;99.90;;;;;;4942263;29;20515;-67
2021/12/03 22:17:05;;;;;;;4.30;3.80;;;3.70;99.90;;;;;;4941861;29;20475;-67
2021/12/03 22:19:32;;;;;;;9.57;3.30;;;3.70;99.90;;;;;;4941252;29;20461;-67
2021/12/03 22:22:02;;;;;;;5.60;3.30;;;3.70;99.90;;;;;;4941364;29;20952;-67
2021/12/03 22:24:28;;;;;;;7.20;3.80;;;3.70;99.90;;;;;;4941750;29;20521;-68
2021/12/03 22:26:55;;;;;;;3.40;3.10;;;3.70;99.90;;;;;;4940999;29;20464;-68
2021/12/03 22:29:22;;;;;;;3.63;3.03;;;3.70;99.90;;;;;;4940406;29;20445;-67
2021/12/03 22:31:49;;;;;;;3.77;3.40;;;3.70;99.90;;;;;;4940477;29;20571;-66
2021/12/03 22:34:16;;;;;;;3.63;3.00;;;3.70;99.90;;;;;;4939879;29;20467;-67
2021/12/03 22:36:43;;;;;;;3.00;2.83;;;3.80;99.90;;;;;;4940818;29;20458;-66
2021/12/03 22:39:12;;;;;;;4.27;2.93;;;3.80;99.90;;;;;;4940818;29;20460;-68
2021/12/03 22:41:42;;;;;;;3.30;3.00;;;3.80;99.90;;;;;;4940391;29;20562;-68
2021/12/03 22:44:09;;;;;;;4.20;3.00;;;3.90;99.90;;;;;;4940131;29;20556;-68
2021/12/03 22:46:46;;;;;;;3.07;2.50;;;3.80;99.90;;;;;;4940368;29;20457;-67
2021/12/03 22:49:21;;;;;;;3.30;3.00;;;3.90;99.90;;;;;;4941335;29;20921;-67
2021/12/03 22:52:03;;;;;;;3.23;2.70;;;3.90;99.90;;;;;;4940199;29;20490;-68
2021/12/03 22:54:37;;;;;;;3.03;2.80;;;3.90;99.90;;;;;;4943093;29;20507;-68
2021/12/03 22:57:06;;;;;;;3.07;2.80;;;3.90;99.90;;;;;;4943274;29;20453;-67
2021/12/03 22:59:33;;;;;;;2.90;2.70;;;3.90;99.90;;;;;;4939482;29;20503;-67
2021/12/03 23:02:02;;;;;;;2.90;2.70;;;4.00;99.90;;;;;;5678288;23;22059;-69
2021/12/03 23:04:29;;;;;;;3.27;3.00;;;4.00;99.90;;;;;;4959274;28;20456;-69
2021/12/03 23:06:55;;;;;;;3.13;2.83;;;4.10;99.90;;;;;;4957615;28;20452;-69
2021/12/03 23:09:24;;;;;;;3.83;2.50;;;4.10;99.90;;;;;;4957276;28;20493;-69
2021/12/03 23:11:53;;;;;;;3.00;2.80;;;4.10;99.90;;;;;;4956900;28;20464;-69
2021/12/03 23:14:19;;;;;;;2.50;2.40;;;4.10;99.90;;;;;;4956636;29;20456;-69
2021/12/03 23:16:46;;;;;;;2.87;2.67;;;4.20;99.90;;;;;;4957071;29;20463;-69
2021/12/03 23:19:13;;;;;;;4.53;3.00;;;4.30;99.90;;;;;;4958151;29;20459;-68
2021/12/03 23:21:40;;;;;;;4.27;2.70;;;4.20;99.90;;;;;;4957496;29;20456;-69
2021/12/03 23:24:06;;;;;;;4.37;3.47;;;4.30;99.90;;;;;;4957237;29;20482;-69
2021/12/03 23:26:34;;;;;;;3.37;2.77;;;4.30;99.90;;;;;;4957979;29;20459;-70
2021/12/03 23:29:06;;;;;;;2.93;2.43;;;4.20;99.90;;;;;;4957500;29;20483;-70
2021/12/03 23:31:33;;;;;;;3.70;2.53;;;4.30;99.90;;;;;;4962448;29;20447;-68
2021/12/03 23:34:00;;;;;;;2.37;2.20;;;4.30;99.90;;;;;;4956952;29;20832;-69
2021/12/03 23:36:28;;;;;;;2.57;1.93;;;4.30;99.90;;;;;;4956781;29;20460;-69
2021/12/03 23:38:55;;;;;;;2.80;2.50;;;4.30;99.90;;;;;;4956022;29;20459;-70
2021/12/03 23:41:21;;;;;;;2.43;2.23;;;4.30;99.90;;;;;;4956736;29;20201;-69
2021/12/03 23:43:48;;;;;;;2.40;2.20;;;4.40;99.90;;;;;;4956491;29;20503;-70
2021/12/03 23:46:16;;;;;;;2.43;2.23;;;4.40;99.90;;;;;;4956465;29;20460;-70
2021/12/03 23:48:43;;;;;;;2.07;1.97;;;4.40;99.90;;;;;;4956439;29;20994;-69
2021/12/03 23:51:10;;;;;;;3.40;2.30;;;4.40;99.90;;;;;;4956689;29;20468;-69
2021/12/03 23:53:36;;;;;;;3.27;2.00;;;4.50;99.90;;;;;;4956292;29;20491;-70
2021/12/03 23:56:04;;;;;;;3.30;2.50;;;4.50;99.90;;;;;;4964087;29;20460;-70
2021/12/03 23:58:35;;;;;;;2.70;2.47;;;4.50;99.90;;;;;;4966679;29;20456;-70
